sensor_id;sensor_type;location;lat;lon;timestamp;P1;durP1;ratioP1;P2;durP2;ratioP2
76035;SDS011;64732;56.314;44.068;2023-04-29T00:01:09;7.80;;;4.60;;
76035;SDS011;64732;56.314;44.068;2023-04-29T00:03:30;7.60;;;4.63;;
76035;SDS011;64732;56.314;44.068;2023-04-29T00:05:51;7.18;;;4.35;;
76035;SDS011;64732;56.314;44.068;2023-04-29T00:08:15;6.07;;;4.55;;
76035;SDS011;64732;56.314;44.068;2023-04-29T00:10:36;5.80;;;4.15;;
76035;SDS011;64732;56.314;44.068;2023-04-29T00:12:57;5.45;;;3.90;;
76035;SDS011;64732;56.314;44.068;2023-04-29T00:15:18;7.45;;;4.15;;
76035;SDS011;64732;56.314;44.068;2023-04-29T00:18:01;8.32;;;4.20;;
76035;SDS011;64732;56.314;44.068;2023-04-29T00:20:27;7.25;;;4.15;;
76035;SDS011;64732;56.314;44.068;2023-04-29T00:22:48;6.53;;;4.22;;
76035;SDS011;64732;56.314;44.068;2023-04-29T00:25:12;5.75;;;3.92;;
76035;SDS011;64732;56.314;44.068;2023-04-29T00:28:00;5.78;;;4.25;;
76035;SDS011;64732;56.314;44.068;2023-04-29T00:30:20;6.90;;;4.45;;
76035;SDS011;64732;56.314;44.068;2023-04-29T00:32:41;7.50;;;4.82;;
76035;SDS011;64732;56.314;44.068;2023-04-29T00:35:03;7.25;;;5.25;;
76035;SDS011;64732;56.314;44.068;2023-04-29T00:37:25;7.57;;;4.25;;
76035;SDS011;64732;56.314;44.068;2023-04-29T00:39:58;7.53;;;4.43;;
76035;SDS011;64732;56.314;44.068;2023-04-29T00:42:21;9.55;;;5.13;;
76035;SDS011;64732;56.314;44.068;2023-04-29T00:44:43;5.60;;;3.83;;
76035;SDS011;64732;56.314;44.068;2023-04-29T00:47:05;7.90;;;4.82;;
76035;SDS011;64732;56.314;44.068;2023-04-29T00:49:26;6.93;;;4.57;;
76035;SDS011;64732;56.314;44.068;2023-04-29T00:51:47;5.57;;;4.32;;
76035;SDS011;64732;56.314;44.068;2023-04-29T00:54:09;6.60;;;4.70;;
76035;SDS011;64732;56.314;44.068;2023-04-29T00:56:30;8.77;;;4.05;;
76035;SDS011;64732;56.314;44.068;2023-04-29T00:58:54;10.27;;;4.82;;
76035;SDS011;64732;56.314;44.068;2023-04-29T01:01:15;8.35;;;4.60;;
76035;SDS011;64732;56.314;44.068;2023-04-29T01:03:39;7.40;;;4.90;;
76035;SDS011;64732;56.314;44.068;2023-04-29T01:06:03;6.28;;;4.55;;
76035;SDS011;64732;56.314;44.068;2023-04-29T01:08:29;7.50;;;4.68;;
76035;SDS011;64732;56.314;44.068;2023-04-29T01:10:58;7.78;;;4.60;;
76035;SDS011;64732;56.314;44.068;2023-04-29T01:13:28;7.35;;;4.35;;
76035;SDS011;64732;56.314;44.068;2023-04-29T01:15:55;8.95;;;4.22;;
76035;SDS011;64732;56.314;44.068;2023-04-29T01:18:25;7.77;;;4.30;;
76035;SDS011;64732;56.314;44.068;2023-04-29T01:20:47;6.03;;;4.45;;
76035;SDS011;64732;56.314;44.068;2023-04-29T01:23:08;7.38;;;5.15;;
76035;SDS011;64732;56.314;44.068;2023-04-29T01:25:32;6.90;;;4.53;;
76035;SDS011;64732;56.314;44.068;2023-04-29T01:27:55;8.98;;;4.80;;
76035;SDS011;64732;56.314;44.068;2023-04-29T01:30:23;5.95;;;4.65;;
76035;SDS011;64732;56.314;44.068;2023-04-29T01:32:51;6.28;;;3.97;;
76035;SDS011;64732;56.314;44.068;2023-04-29T01:35:19;7.38;;;4.80;;
76035;SDS011;64732;56.314;44.068;2023-04-29T01:37:48;8.80;;;5.13;;
76035;SDS011;64732;56.314;44.068;2023-04-29T01:40:15;8.48;;;5.13;;
76035;SDS011;64732;56.314;44.068;2023-04-29T01:42:42;6.53;;;4.20;;
76035;SDS011;64732;56.314;44.068;2023-04-29T01:45:05;9.13;;;4.80;;
76035;SDS011;64732;56.314;44.068;2023-04-29T01:47:28;10.15;;;4.93;;
76035;SDS011;64732;56.314;44.068;2023-04-29T01:49:49;8.00;;;5.00;;
76035;SDS011;64732;56.314;44.068;2023-04-29T01:52:10;7.22;;;4.53;;
76035;SDS011;64732;56.314;44.068;2023-04-29T01:54:31;8.30;;;4.30;;
76035;SDS011;64732;56.314;44.068;2023-04-29T01:56:52;8.77;;;4.65;;
76035;SDS011;64732;56.314;44.068;2023-04-29T01:59:16;7.07;;;4.32;;
76035;SDS011;64732;56.314;44.068;2023-04-29T02:01:37;6.93;;;4.63;;
76035;SDS011;64732;56.314;44.068;2023-04-29T02:03:58;8.30;;;4.68;;
76035;SDS011;64732;56.314;44.068;2023-04-29T02:06:19;8.38;;;4.28;;
76035;SDS011;64732;56.314;44.068;2023-04-29T02:08:40;8.65;;;4.30;;
76035;SDS011;64732;56.314;44.068;2023-04-29T02:11:01;8.38;;;4.57;;
76035;SDS011;64732;56.314;44.068;2023-04-29T02:13:23;10.55;;;4.80;;
76035;SDS011;64732;56.314;44.068;2023-04-29T02:15:46;6.45;;;4.32;;
76035;SDS011;64732;56.314;44.068;2023-04-29T02:18:07;5.43;;;3.67;;
76035;SDS011;64732;56.314;44.068;2023-04-29T02:20:28;8.68;;;4.88;;
76035;SDS011;64732;56.314;44.068;2023-04-29T02:22:49;7.97;;;4.05;;
76035;SDS011;64732;56.314;44.068;2023-04-29T02:25:10;8.02;;;3.90;;
76035;SDS011;64732;56.314;44.068;2023-04-29T02:27:31;6.35;;;3.80;;
76035;SDS011;64732;56.314;44.068;2023-04-29T02:29:52;11.50;;;4.28;;
76035;SDS011;64732;56.314;44.068;2023-04-29T02:32:16;7.18;;;3.88;;
76035;SDS011;64732;56.314;44.068;2023-04-29T02:34:37;5.60;;;3.78;;
76035;SDS011;64732;56.314;44.068;2023-04-29T02:36:58;6.20;;;4.15;;
76035;SDS011;64732;56.314;44.068;2023-04-29T02:39:19;6.28;;;4.05;;
76035;SDS011;64732;56.314;44.068;2023-04-29T02:41:40;7.70;;;4.32;;
76035;SDS011;64732;56.314;44.068;2023-04-29T02:44:01;5.80;;;4.03;;
76035;SDS011;64732;56.314;44.068;2023-04-29T02:46:22;6.13;;;3.85;;
76035;SDS011;64732;56.314;44.068;2023-04-29T02:48:46;7.60;;;4.03;;
76035;SDS011;64732;56.314;44.068;2023-04-29T02:51:07;7.43;;;4.20;;
76035;SDS011;64732;56.314;44.068;2023-04-29T02:53:28;6.13;;;3.97;;
76035;SDS011;64732;56.314;44.068;2023-04-29T02:55:49;6.43;;;4.53;;
76035;SDS011;64732;56.314;44.068;2023-04-29T02:58:10;6.88;;;4.43;;
76035;SDS011;64732;56.314;44.068;2023-04-29T03:00:31;6.72;;;3.72;;
76035;SDS011;64732;56.314;44.068;2023-04-29T03:02:52;7.05;;;4.07;;
76035;SDS011;64732;56.314;44.068;2023-04-29T03:05:15;9.52;;;4.18;;
76035;SDS011;64732;56.314;44.068;2023-04-29T03:07:37;7.57;;;4.38;;
76035;SDS011;64732;56.314;44.068;2023-04-29T03:09:57;9.85;;;3.90;;
76035;SDS011;64732;56.314;44.068;2023-04-29T03:12:19;7.13;;;4.40;;
76035;SDS011;64732;56.314;44.068;2023-04-29T03:14:40;8.10;;;3.85;;
76035;SDS011;64732;56.314;44.068;2023-04-29T03:17:01;8.35;;;3.97;;
76035;SDS011;64732;56.314;44.068;2023-04-29T03:19:22;7.85;;;4.15;;
76035;SDS011;64732;56.314;44.068;2023-04-29T03:21:45;5.93;;;3.83;;
76035;SDS011;64732;56.314;44.068;2023-04-29T03:24:06;7.30;;;4.25;;
76035;SDS011;64732;56.314;44.068;2023-04-29T03:26:28;7.13;;;4.13;;
76035;SDS011;64732;56.314;44.068;2023-04-29T03:28:49;8.32;;;4.32;;
76035;SDS011;64732;56.314;44.068;2023-04-29T03:31:10;7.95;;;4.50;;
76035;SDS011;64732;56.314;44.068;2023-04-29T03:33:31;10.68;;;4.65;;
76035;SDS011;64732;56.314;44.068;2023-04-29T03:35:52;7.78;;;4.32;;
76035;SDS011;64732;56.314;44.068;2023-04-29T03:38:15;10.80;;;5.55;;
76035;SDS011;64732;56.314;44.068;2023-04-29T03:40:36;7.35;;;4.63;;
76035;SDS011;64732;56.314;44.068;2023-04-29T03:42:57;7.95;;;4.68;;
76035;SDS011;64732;56.314;44.068;2023-04-29T03:45:18;9.50;;;4.63;;
76035;SDS011;64732;56.314;44.068;2023-04-29T03:47:40;7.63;;;4.93;;
76035;SDS011;64732;56.314;44.068;2023-04-29T03:50:01;8.43;;;4.78;;
76035;SDS011;64732;56.314;44.068;2023-04-29T03:52:24;9.30;;;4.82;;
76035;SDS011;64732;56.314;44.068;2023-04-29T03:54:48;9.82;;;4.82;;
76035;SDS011;64732;56.314;44.068;2023-04-29T03:57:09;8.13;;;4.45;;
76035;SDS011;64732;56.314;44.068;2023-04-29T03:59:30;8.68;;;4.80;;
76035;SDS011;64732;56.314;44.068;2023-04-29T04:01:51;8.82;;;5.13;;
76035;SDS011;64732;56.314;44.068;2023-04-29T04:04:12;8.25;;;5.00;;
76035;SDS011;64732;56.314;44.068;2023-04-29T04:06:33;8.77;;;4.72;;
76035;SDS011;64732;56.314;44.068;2023-04-29T04:08:54;6.97;;;5.00;;
76035;SDS011;64732;56.314;44.068;2023-04-29T04:11:18;8.07;;;4.78;;
76035;SDS011;64732;56.314;44.068;2023-04-29T04:13:39;8.23;;;5.00;;
76035;SDS011;64732;56.314;44.068;2023-04-29T04:16:00;8.65;;;5.50;;
76035;SDS011;64732;56.314;44.068;2023-04-29T04:18:22;8.10;;;4.95;;
76035;SDS011;64732;56.314;44.068;2023-04-29T04:20:43;9.07;;;4.75;;
76035;SDS011;64732;56.314;44.068;2023-04-29T04:23:04;7.82;;;4.97;;
76035;SDS011;64732;56.314;44.068;2023-04-29T04:28:06;9.40;;;5.03;;
76035;SDS011;64732;56.314;44.068;2023-04-29T04:30:27;12.30;;;5.10;;
76035;SDS011;64732;56.314;44.068;2023-04-29T04:32:48;12.75;;;5.40;;
76035;SDS011;64732;56.314;44.068;2023-04-29T04:35:09;13.98;;;5.32;;
76035;SDS011;64732;56.314;44.068;2023-04-29T04:37:31;7.28;;;5.07;;
76035;SDS011;64732;56.314;44.068;2023-04-29T04:39:52;8.45;;;5.00;;
76035;SDS011;64732;56.314;44.068;2023-04-29T04:42:12;7.38;;;4.90;;
76035;SDS011;64732;56.314;44.068;2023-04-29T04:44:36;10.10;;;4.80;;
76035;SDS011;64732;56.314;44.068;2023-04-29T04:46:57;12.43;;;7.28;;
76035;SDS011;64732;56.314;44.068;2023-04-29T04:49:22;8.07;;;4.82;;
76035;SDS011;64732;56.314;44.068;2023-04-29T04:51:43;11.02;;;4.70;;
76035;SDS011;64732;56.314;44.068;2023-04-29T04:54:04;7.18;;;5.18;;
76035;SDS011;64732;56.314;44.068;2023-04-29T04:56:25;6.53;;;4.30;;
76035;SDS011;64732;56.314;44.068;2023-04-29T04:58:46;8.68;;;4.82;;
76035;SDS011;64732;56.314;44.068;2023-04-29T05:01:10;9.98;;;5.22;;
76035;SDS011;64732;56.314;44.068;2023-04-29T05:03:31;8.85;;;4.00;;
76035;SDS011;64732;56.314;44.068;2023-04-29T05:05:52;10.18;;;4.70;;
76035;SDS011;64732;56.314;44.068;2023-04-29T05:08:13;8.65;;;4.65;;
76035;SDS011;64732;56.314;44.068;2023-04-29T05:10:35;9.85;;;5.55;;
76035;SDS011;64732;56.314;44.068;2023-04-29T05:12:56;8.45;;;3.97;;
76035;SDS011;64732;56.314;44.068;2023-04-29T05:15:17;10.52;;;4.45;;
76035;SDS011;64732;56.314;44.068;2023-04-29T05:17:40;8.48;;;3.97;;
76035;SDS011;64732;56.314;44.068;2023-04-29T05:20:01;5.82;;;3.97;;
76035;SDS011;64732;56.314;44.068;2023-04-29T05:22:26;9.63;;;3.95;;
76035;SDS011;64732;56.314;44.068;2023-04-29T05:24:47;9.73;;;3.60;;
76035;SDS011;64732;56.314;44.068;2023-04-29T05:27:08;7.28;;;3.47;;
76035;SDS011;64732;56.314;44.068;2023-04-29T05:29:29;8.15;;;3.78;;
76035;SDS011;64732;56.314;44.068;2023-04-29T05:31:50;5.70;;;3.75;;
76035;SDS011;64732;56.314;44.068;2023-04-29T05:34:13;6.70;;;3.70;;
76035;SDS011;64732;56.314;44.068;2023-04-29T05:36:34;10.25;;;3.38;;
76035;SDS011;64732;56.314;44.068;2023-04-29T05:38:55;9.20;;;3.60;;
76035;SDS011;64732;56.314;44.068;2023-04-29T05:41:16;7.68;;;3.47;;
76035;SDS011;64732;56.314;44.068;2023-04-29T05:43:37;9.07;;;3.47;;
76035;SDS011;64732;56.314;44.068;2023-04-29T05:45:58;7.90;;;3.55;;
76035;SDS011;64732;56.314;44.068;2023-04-29T05:48:19;6.47;;;2.95;;
76035;SDS011;64732;56.314;44.068;2023-04-29T05:50:43;7.03;;;2.95;;
76035;SDS011;64732;56.314;44.068;2023-04-29T05:53:04;7.57;;;2.67;;
76035;SDS011;64732;56.314;44.068;2023-04-29T05:55:25;7.85;;;2.58;;
76035;SDS011;64732;56.314;44.068;2023-04-29T05:57:46;4.53;;;2.50;;
76035;SDS011;64732;56.314;44.068;2023-04-29T06:00:08;10.75;;;6.47;;
76035;SDS011;64732;56.314;44.068;2023-04-29T06:02:30;13.00;;;6.07;;
76035;SDS011;64732;56.314;44.068;2023-04-29T06:04:51;5.43;;;2.45;;
76035;SDS011;64732;56.314;44.068;2023-04-29T06:07:15;8.73;;;2.38;;
76035;SDS011;64732;56.314;44.068;2023-04-29T06:09:36;5.70;;;2.67;;
76035;SDS011;64732;56.314;44.068;2023-04-29T06:11:57;13.60;;;3.13;;
76035;SDS011;64732;56.314;44.068;2023-04-29T06:14:18;10.25;;;2.22;;
76035;SDS011;64732;56.314;44.068;2023-04-29T06:16:40;7.60;;;2.08;;
76035;SDS011;64732;56.314;44.068;2023-04-29T06:19:02;7.05;;;2.35;;
76035;SDS011;64732;56.314;44.068;2023-04-29T06:21:23;5.63;;;2.13;;
76035;SDS011;64732;56.314;44.068;2023-04-29T06:23:46;20.23;;;7.03;;
76035;SDS011;64732;56.314;44.068;2023-04-29T06:26:07;22.50;;;9.13;;
76035;SDS011;64732;56.314;44.068;2023-04-29T06:28:28;7.75;;;2.58;;
76035;SDS011;64732;56.314;44.068;2023-04-29T06:30:50;8.43;;;2.60;;
76035;SDS011;64732;56.314;44.068;2023-04-29T06:33:11;5.43;;;2.60;;
76035;SDS011;64732;56.314;44.068;2023-04-29T06:35:32;6.55;;;2.30;;
76035;SDS011;64732;56.314;44.068;2023-04-29T06:37:53;6.45;;;2.17;;
76035;SDS011;64732;56.314;44.068;2023-04-29T06:40:17;5.90;;;2.05;;
76035;SDS011;64732;56.314;44.068;2023-04-29T06:42:38;9.93;;;2.72;;
76035;SDS011;64732;56.314;44.068;2023-04-29T06:44:59;8.63;;;2.60;;
76035;SDS011;64732;56.314;44.068;2023-04-29T06:47:20;7.18;;;2.53;;
76035;SDS011;64732;56.314;44.068;2023-04-29T06:49:41;5.32;;;2.13;;
76035;SDS011;64732;56.314;44.068;2023-04-29T06:52:05;8.23;;;2.20;;
76035;SDS011;64732;56.314;44.068;2023-04-29T06:54:26;4.88;;;1.90;;
76035;SDS011;64732;56.314;44.068;2023-04-29T06:56:50;6.90;;;2.08;;
76035;SDS011;64732;56.314;44.068;2023-04-29T06:59:11;7.10;;;2.20;;
76035;SDS011;64732;56.314;44.068;2023-04-29T07:01:32;5.82;;;2.50;;
76035;SDS011;64732;56.314;44.068;2023-04-29T07:03:53;6.05;;;2.58;;
76035;SDS011;64732;56.314;44.068;2023-04-29T07:06:14;10.75;;;2.80;;
76035;SDS011;64732;56.314;44.068;2023-04-29T07:08:36;7.85;;;2.10;;
76035;SDS011;64732;56.314;44.068;2023-04-29T07:10:57;7.25;;;2.50;;
76035;SDS011;64732;56.314;44.068;2023-04-29T07:13:21;7.47;;;2.20;;
76035;SDS011;64732;56.314;44.068;2023-04-29T07:15:42;5.78;;;2.13;;
76035;SDS011;64732;56.314;44.068;2023-04-29T07:18:03;8.07;;;2.25;;
76035;SDS011;64732;56.314;44.068;2023-04-29T07:20:25;9.27;;;2.22;;
76035;SDS011;64732;56.314;44.068;2023-04-29T07:22:46;3.45;;;2.03;;
76035;SDS011;64732;56.314;44.068;2023-04-29T07:25:08;9.68;;;2.42;;
76035;SDS011;64732;56.314;44.068;2023-04-29T07:27:29;6.10;;;2.47;;
76035;SDS011;64732;56.314;44.068;2023-04-29T07:29:52;6.93;;;2.05;;
76035;SDS011;64732;56.314;44.068;2023-04-29T07:32:14;5.05;;;2.17;;
76035;SDS011;64732;56.314;44.068;2023-04-29T07:34:35;5.32;;;2.10;;
76035;SDS011;64732;56.314;44.068;2023-04-29T07:36:56;5.85;;;2.60;;
76035;SDS011;64732;56.314;44.068;2023-04-29T07:39:20;4.55;;;2.08;;
76035;SDS011;64732;56.314;44.068;2023-04-29T07:41:41;4.95;;;2.33;;
76035;SDS011;64732;56.314;44.068;2023-04-29T07:44:02;10.23;;;2.78;;
76035;SDS011;64732;56.314;44.068;2023-04-29T07:46:26;5.40;;;2.10;;
76035;SDS011;64732;56.314;44.068;2023-04-29T07:48:47;9.73;;;2.38;;
76035;SDS011;64732;56.314;44.068;2023-04-29T07:51:11;9.05;;;2.22;;
76035;SDS011;64732;56.314;44.068;2023-04-29T07:53:32;6.22;;;1.88;;
76035;SDS011;64732;56.314;44.068;2023-04-29T07:55:54;7.50;;;2.00;;
76035;SDS011;64732;56.314;44.068;2023-04-29T07:58:15;10.50;;;2.40;;
76035;SDS011;64732;56.314;44.068;2023-04-29T08:00:36;4.05;;;1.80;;
76035;SDS011;64732;56.314;44.068;2023-04-29T08:02:59;5.20;;;1.67;;
76035;SDS011;64732;56.314;44.068;2023-04-29T08:05:21;8.02;;;1.70;;
76035;SDS011;64732;56.314;44.068;2023-04-29T08:07:42;6.32;;;2.90;;
76035;SDS011;64732;56.314;44.068;2023-04-29T08:10:04;13.30;;;2.38;;
76035;SDS011;64732;56.314;44.068;2023-04-29T08:12:26;18.52;;;2.42;;
76035;SDS011;64732;56.314;44.068;2023-04-29T08:14:47;12.07;;;2.47;;
76035;SDS011;64732;56.314;44.068;2023-04-29T08:17:08;9.80;;;2.60;;
76035;SDS011;64732;56.314;44.068;2023-04-29T08:19:32;13.85;;;2.30;;
76035;SDS011;64732;56.314;44.068;2023-04-29T08:21:53;13.98;;;2.28;;
76035;SDS011;64732;56.314;44.068;2023-04-29T08:24:14;12.20;;;2.75;;
76035;SDS011;64732;56.314;44.068;2023-04-29T08:26:38;8.15;;;2.13;;
76035;SDS011;64732;56.314;44.068;2023-04-29T08:29:00;12.20;;;2.30;;
76035;SDS011;64732;56.314;44.068;2023-04-29T08:31:23;8.18;;;2.00;;
76035;SDS011;64732;56.314;44.068;2023-04-29T08:33:44;6.18;;;1.88;;
76035;SDS011;64732;56.314;44.068;2023-04-29T08:36:08;8.85;;;2.00;;
76035;SDS011;64732;56.314;44.068;2023-04-29T08:38:29;4.80;;;1.80;;
76035;SDS011;64732;56.314;44.068;2023-04-29T08:40:50;20.27;;;2.58;;
76035;SDS011;64732;56.314;44.068;2023-04-29T08:43:12;11.25;;;2.15;;
76035;SDS011;64732;56.314;44.068;2023-04-29T08:45:34;5.30;;;2.03;;
76035;SDS011;64732;56.314;44.068;2023-04-29T08:47:55;5.93;;;1.98;;
76035;SDS011;64732;56.314;44.068;2023-04-29T08:50:17;9.30;;;2.10;;
76035;SDS011;64732;56.314;44.068;2023-04-29T08:52:40;8.90;;;2.33;;
76035;SDS011;64732;56.314;44.068;2023-04-29T08:55:01;11.82;;;2.17;;
76035;SDS011;64732;56.314;44.068;2023-04-29T08:57:27;4.18;;;1.58;;
76035;SDS011;64732;56.314;44.068;2023-04-29T08:59:49;5.97;;;2.15;;
76035;SDS011;64732;56.314;44.068;2023-04-29T09:02:14;10.80;;;1.70;;
76035;SDS011;64732;56.314;44.068;2023-04-29T09:04:38;11.70;;;1.73;;
76035;SDS011;64732;56.314;44.068;2023-04-29T09:07:01;5.88;;;1.65;;
76035;SDS011;64732;56.314;44.068;2023-04-29T09:09:25;5.20;;;1.55;;
76035;SDS011;64732;56.314;44.068;2023-04-29T09:11:47;5.63;;;1.50;;
76035;SDS011;64732;56.314;44.068;2023-04-29T09:14:08;8.82;;;1.73;;
76035;SDS011;64732;56.314;44.068;2023-04-29T09:16:29;6.85;;;1.67;;
76035;SDS011;64732;56.314;44.068;2023-04-29T09:18:50;8.35;;;1.60;;
76035;SDS011;64732;56.314;44.068;2023-04-29T09:21:12;3.22;;;1.55;;
76035;SDS011;64732;56.314;44.068;2023-04-29T09:23:35;9.00;;;1.77;;
76035;SDS011;64732;56.314;44.068;2023-04-29T09:25:59;6.32;;;1.60;;
76035;SDS011;64732;56.314;44.068;2023-04-29T09:28:20;6.35;;;1.75;;
76035;SDS011;64732;56.314;44.068;2023-04-29T09:30:44;5.45;;;1.75;;
76035;SDS011;64732;56.314;44.068;2023-04-29T09:33:06;7.20;;;1.90;;
76035;SDS011;64732;56.314;44.068;2023-04-29T09:35:28;13.48;;;2.50;;
76035;SDS011;64732;56.314;44.068;2023-04-29T09:37:49;6.20;;;1.60;;
76035;SDS011;64732;56.314;44.068;2023-04-29T09:40:12;6.35;;;1.85;;
76035;SDS011;64732;56.314;44.068;2023-04-29T09:42:49;7.75;;;1.73;;
76035;SDS011;64732;56.314;44.068;2023-04-29T09:45:11;6.20;;;2.00;;
76035;SDS011;64732;56.314;44.068;2023-04-29T09:47:32;4.55;;;1.83;;
76035;SDS011;64732;56.314;44.068;2023-04-29T09:49:53;6.03;;;2.17;;
76035;SDS011;64732;56.314;44.068;2023-04-29T09:52:30;5.85;;;1.60;;
76035;SDS011;64732;56.314;44.068;2023-04-29T09:55:03;6.68;;;1.80;;
76035;SDS011;64732;56.314;44.068;2023-04-29T09:57:27;8.18;;;2.08;;
76035;SDS011;64732;56.314;44.068;2023-04-29T10:00:01;7.53;;;1.60;;
76035;SDS011;64732;56.314;44.068;2023-04-29T10:02:25;9.95;;;1.95;;
76035;SDS011;64732;56.314;44.068;2023-04-29T10:04:50;4.82;;;1.55;;
76035;SDS011;64732;56.314;44.068;2023-04-29T10:07:14;10.48;;;1.85;;
76035;SDS011;64732;56.314;44.068;2023-04-29T10:09:35;8.50;;;1.75;;
76035;SDS011;64732;56.314;44.068;2023-04-29T10:11:57;5.60;;;1.48;;
76035;SDS011;64732;56.314;44.068;2023-04-29T10:14:20;11.85;;;1.60;;
76035;SDS011;64732;56.314;44.068;2023-04-29T10:16:46;5.32;;;1.52;;
76035;SDS011;64732;56.314;44.068;2023-04-29T10:19:08;5.20;;;1.73;;
76035;SDS011;64732;56.314;44.068;2023-04-29T10:21:32;6.85;;;1.40;;
76035;SDS011;64732;56.314;44.068;2023-04-29T10:23:53;6.15;;;1.77;;
76035;SDS011;64732;56.314;44.068;2023-04-29T10:26:17;4.38;;;1.30;;
76035;SDS011;64732;56.314;44.068;2023-04-29T10:28:39;2.95;;;1.40;;
76035;SDS011;64732;56.314;44.068;2023-04-29T10:31:02;7.97;;;1.50;;
76035;SDS011;64732;56.314;44.068;2023-04-29T10:33:27;7.63;;;2.53;;
76035;SDS011;64732;56.314;44.068;2023-04-29T10:35:51;4.38;;;1.45;;
76035;SDS011;64732;56.314;44.068;2023-04-29T10:38:14;11.15;;;2.70;;
76035;SDS011;64732;56.314;44.068;2023-04-29T10:40:39;3.78;;;1.55;;
76035;SDS011;64732;56.314;44.068;2023-04-29T10:43:02;4.13;;;1.40;;
76035;SDS011;64732;56.314;44.068;2023-04-29T10:45:24;8.05;;;1.60;;
76035;SDS011;64732;56.314;44.068;2023-04-29T10:50:34;4.28;;;1.90;;
76035;SDS011;64732;56.314;44.068;2023-04-29T10:53:02;6.30;;;1.70;;
76035;SDS011;64732;56.314;44.068;2023-04-29T10:55:24;8.25;;;2.10;;
76035;SDS011;64732;56.314;44.068;2023-04-29T10:57:45;20.33;;;2.50;;
76035;SDS011;64732;56.314;44.068;2023-04-29T11:00:07;11.40;;;2.28;;
76035;SDS011;64732;56.314;44.068;2023-04-29T11:02:41;7.78;;;2.63;;
76035;SDS011;64732;56.314;44.068;2023-04-29T11:05:05;6.78;;;2.65;;
76035;SDS011;64732;56.314;44.068;2023-04-29T11:07:33;8.25;;;3.00;;
76035;SDS011;64732;56.314;44.068;2023-04-29T11:09:54;6.15;;;2.75;;
76035;SDS011;64732;56.314;44.068;2023-04-29T11:12:17;5.45;;;2.83;;
76035;SDS011;64732;56.314;44.068;2023-04-29T11:14:40;9.30;;;3.97;;
76035;SDS011;64732;56.314;44.068;2023-04-29T11:17:03;6.43;;;3.80;;
76035;SDS011;64732;56.314;44.068;2023-04-29T11:19:30;9.60;;;4.40;;
76035;SDS011;64732;56.314;44.068;2023-04-29T11:22:08;7.97;;;4.07;;
76035;SDS011;64732;56.314;44.068;2023-04-29T11:24:35;11.95;;;5.13;;
76035;SDS011;64732;56.314;44.068;2023-04-29T11:26:59;15.02;;;6.90;;
76035;SDS011;64732;56.314;44.068;2023-04-29T11:29:22;9.23;;;4.70;;
76035;SDS011;64732;56.314;44.068;2023-04-29T11:31:44;8.63;;;5.03;;
76035;SDS011;64732;56.314;44.068;2023-04-29T11:34:05;13.43;;;6.68;;
76035;SDS011;64732;56.314;44.068;2023-04-29T11:36:26;13.43;;;6.63;;
76035;SDS011;64732;56.314;44.068;2023-04-29T11:38:47;12.13;;;7.13;;
76035;SDS011;64732;56.314;44.068;2023-04-29T11:41:12;9.18;;;6.15;;
76035;SDS011;64732;56.314;44.068;2023-04-29T11:43:34;16.80;;;9.20;;
76035;SDS011;64732;56.314;44.068;2023-04-29T11:45:55;15.27;;;6.32;;
76035;SDS011;64732;56.314;44.068;2023-04-29T11:48:16;14.02;;;9.57;;
76035;SDS011;64732;56.314;44.068;2023-04-29T11:50:37;15.30;;;8.07;;
76035;SDS011;64732;56.314;44.068;2023-04-29T11:53:01;14.55;;;9.80;;
76035;SDS011;64732;56.314;44.068;2023-04-29T11:55:22;17.70;;;10.27;;
76035;SDS011;64732;56.314;44.068;2023-04-29T11:57:47;21.30;;;11.80;;
76035;SDS011;64732;56.314;44.068;2023-04-29T12:00:09;12.80;;;7.45;;
76035;SDS011;64732;56.314;44.068;2023-04-29T12:02:30;16.75;;;9.90;;
76035;SDS011;64732;56.314;44.068;2023-04-29T12:04:52;17.33;;;11.02;;
76035;SDS011;64732;56.314;44.068;2023-04-29T12:07:13;18.73;;;10.85;;
76035;SDS011;64732;56.314;44.068;2023-04-29T12:09:40;14.95;;;7.80;;
76035;SDS011;64732;56.314;44.068;2023-04-29T12:12:02;13.68;;;8.32;;
76035;SDS011;64732;56.314;44.068;2023-04-29T12:14:26;9.10;;;5.75;;
76035;SDS011;64732;56.314;44.068;2023-04-29T12:16:47;7.55;;;5.15;;
76035;SDS011;64732;56.314;44.068;2023-04-29T12:19:08;13.90;;;7.43;;
76035;SDS011;64732;56.314;44.068;2023-04-29T12:21:29;12.55;;;7.63;;
76035;SDS011;64732;56.314;44.068;2023-04-29T12:23:50;10.98;;;6.35;;
76035;SDS011;64732;56.314;44.068;2023-04-29T12:26:11;10.85;;;6.82;;
76035;SDS011;64732;56.314;44.068;2023-04-29T12:28:32;10.32;;;6.03;;
76035;SDS011;64732;56.314;44.068;2023-04-29T12:30:57;10.98;;;6.97;;
76035;SDS011;64732;56.314;44.068;2023-04-29T12:33:18;11.32;;;7.20;;
76035;SDS011;64732;56.314;44.068;2023-04-29T12:35:40;18.77;;;9.27;;
76035;SDS011;64732;56.314;44.068;2023-04-29T12:38:01;13.60;;;9.23;;
76035;SDS011;64732;56.314;44.068;2023-04-29T12:40:22;15.27;;;8.95;;
76035;SDS011;64732;56.314;44.068;2023-04-29T12:42:44;14.57;;;8.77;;
76035;SDS011;64732;56.314;44.068;2023-04-29T12:45:05;17.20;;;9.90;;
76035;SDS011;64732;56.314;44.068;2023-04-29T12:47:32;16.40;;;9.30;;
76035;SDS011;64732;56.314;44.068;2023-04-29T12:49:53;18.55;;;9.93;;
76035;SDS011;64732;56.314;44.068;2023-04-29T12:52:16;20.52;;;14.05;;
76035;SDS011;64732;56.314;44.068;2023-04-29T12:54:38;18.33;;;12.23;;
76035;SDS011;64732;56.314;44.068;2023-04-29T12:56:59;19.90;;;13.50;;
76035;SDS011;64732;56.314;44.068;2023-04-29T12:59:20;20.27;;;13.60;;
76035;SDS011;64732;56.314;44.068;2023-04-29T13:01:41;16.17;;;9.40;;
76035;SDS011;64732;56.314;44.068;2023-04-29T13:04:05;18.98;;;11.55;;
76035;SDS011;64732;56.314;44.068;2023-04-29T13:06:26;13.07;;;7.97;;
76035;SDS011;64732;56.314;44.068;2023-04-29T13:08:47;11.93;;;7.13;;
76035;SDS011;64732;56.314;44.068;2023-04-29T13:11:08;11.35;;;6.93;;
76035;SDS011;64732;56.314;44.068;2023-04-29T13:13:29;11.15;;;5.97;;
76035;SDS011;64732;56.314;44.068;2023-04-29T13:15:50;14.32;;;8.35;;
76035;SDS011;64732;56.314;44.068;2023-04-29T13:18:11;12.93;;;6.10;;
76035;SDS011;64732;56.314;44.068;2023-04-29T13:20:35;10.95;;;5.95;;
76035;SDS011;64732;56.314;44.068;2023-04-29T13:22:57;11.43;;;7.28;;
76035;SDS011;64732;56.314;44.068;2023-04-29T13:25:18;9.52;;;5.47;;
76035;SDS011;64732;56.314;44.068;2023-04-29T13:27:41;12.18;;;7.05;;
76035;SDS011;64732;56.314;44.068;2023-04-29T13:30:02;12.25;;;6.07;;
76035;SDS011;64732;56.314;44.068;2023-04-29T13:32:25;10.15;;;5.47;;
76035;SDS011;64732;56.314;44.068;2023-04-29T13:34:46;12.23;;;7.93;;
76035;SDS011;64732;56.314;44.068;2023-04-29T13:37:10;9.10;;;4.07;;
76035;SDS011;64732;56.314;44.068;2023-04-29T13:39:31;9.63;;;5.72;;
76035;SDS011;64732;56.314;44.068;2023-04-29T13:41:53;7.22;;;3.78;;
76035;SDS011;64732;56.314;44.068;2023-04-29T13:44:14;7.10;;;3.40;;
76035;SDS011;64732;56.314;44.068;2023-04-29T13:46:34;6.50;;;3.47;;
76035;SDS011;64732;56.314;44.068;2023-04-29T13:48:55;12.57;;;4.88;;
76035;SDS011;64732;56.314;44.068;2023-04-29T13:51:17;10.70;;;5.55;;
76035;SDS011;64732;56.314;44.068;2023-04-29T13:53:41;4.55;;;2.67;;
76035;SDS011;64732;56.314;44.068;2023-04-29T13:56:03;7.93;;;4.22;;
76035;SDS011;64732;56.314;44.068;2023-04-29T13:58:25;5.53;;;2.40;;
76035;SDS011;64732;56.314;44.068;2023-04-29T14:00:46;7.88;;;3.78;;
76035;SDS011;64732;56.314;44.068;2023-04-29T14:03:07;9.57;;;3.85;;
76035;SDS011;64732;56.314;44.068;2023-04-29T14:05:28;8.18;;;5.05;;
76035;SDS011;64732;56.314;44.068;2023-04-29T14:07:49;9.13;;;4.00;;